CST,Max TemperatureF,Mean TemperatureF,Min TemperatureF,Max Dew PointF,MeanDew PointF,Min DewpointF,Max Humidity, Mean Humidity, Min Humidity, Max Sea Level PressureIn, Mean Sea Level PressureIn, Min Sea Level PressureIn, Max VisibilityMiles, Mean VisibilityMiles, Min VisibilityMiles, Max Wind SpeedMPH, Mean Wind SpeedMPH, Max Gust SpeedMPH,PrecipitationIn, CloudCover, Events, WindDirDegrees
2013-2-1,60,50,39,41,35,30,76,54,34,30.40,30.35,30.31,10,9,7,12,7,16,0.00,0,,328
2013-2-2,64,48,32,52,36,27,100,68,34,30.38,30.29,30.19,10,9,5,12,4,,0.00,0,,97
2013-2-3,66,54,41,55,45,34,100,72,30,30.27,30.19,30.14,10,9,0,9,4,,0.00,1,Fog,288
2013-2-4,66,52,39,54,44,36,100,70,37,30.13,30.07,30.00,10,9,0,6,1,,0.01,2,Fog-Rain,113
2013-2-5,68,60,51,63,58,52,100,91,78,30.04,30.00,29.96,10,6,0,10,4,,0.24,8,Fog-Rain,83
2013-2-6,73,62,50,61,58,50,100,88,57,30.16,30.08,30.03,10,5,0,10,4,,0.00,5,Fog-Rain,75
2013-2-7,77,65,51,63,59,52,100,83,50,30.03,29.90,29.79,10,8,0,23,7,33,1.35,4,Rain,19
2013-2-8,69,60,50,61,56,50,100,88,68,30.16,30.05,29.95,10,6,0,14,2,16,0.00,5,Fog,279
2013-2-9,68,56,44,54,49,43,94,78,55,30.26,30.19,30.14,10,8,4,13,7,17,0.00,2,,64
2013-2-10,73,64,55,70,63,54,100,89,73,30.14,30.06,29.99,10,6,4,25,11,34,0.00,7,Rain,135
2013-2-11,71,66,60,70,64,55,100,94,82,30.12,30.06,30.01,10,5,0,16,5,23,0.18,8,Fog-Rain,47
2013-2-12,71,65,59,70,63,57,100,95,88,30.05,29.91,29.79,10,6,1,20,7,26,0.03,8,Rain,114
2013-2-13,68,58,48,68,52,43,100,86,72,30.07,29.94,29.79,10,7,1,13,7,22,0.08,5,Rain,306
2013-2-14,57,47,37,43,40,37,100,80,51,30.18,30.10,30.05,10,7,5,9,4,,0.00,0,,1
2013-2-15,64,48,33,46,40,32,100,71,30,30.18,30.11,30.05,10,7,1,10,2,,0.00,0,,299
2013-2-16,55,44,32,41,28,16,80,47,23,30.29,30.17,30.09,10,9,7,20,10,30,0.00,2,,323
2013-2-17,53,42,30,34,27,18,100,65,26,30.40,30.33,30.29,10,9,5,8,2,,0.00,0,,48
2013-2-18,64,48,32,54,42,32,100,71,42,30.30,30.21,30.04,10,9,4,21,6,30,0.00,3,Rain,137
2013-2-19,68,54,41,63,48,28,100,68,23,30.21,30.11,29.99,10,8,2,22,12,30,0.47,3,Rain,324
2013-2-20,60,48,37,39,30,23,100,57,23,30.29,30.18,30.10,10,10,7,13,4,20,0.00,0,,37
2013-2-21,69,53,37,66,50,32,94,71,50,30.10,29.98,29.89,10,8,5,21,8,26,0.00,5,,103
2013-2-22,69,68,66,70,67,64,100,95,83,29.98,29.92,29.87,10,5,0,15,8,20,0.20,8,Fog-Rain,68
2013-2-23,64,60,57,64,58,55,100,96,88,29.96,29.90,29.79,10,6,0,12,4,17,0.91,8,Rain,348
2013-2-24,73,62,50,61,55,50,100,83,53,30.00,29.93,29.84,10,7,1,13,6,,0.25,6,Rain,55
2013-2-25,68,64,60,68,62,59,100,93,78,29.84,29.70,29.53,10,7,2,24,11,33,1.56,8,Rain,92
2013-2-26,68,60,53,64,44,37,94,63,48,29.94,29.74,29.55,10,8,5,17,9,24,0.00,1,,248
2013-2-27,60,53,46,52,43,36,87,63,42,30.04,29.98,29.93,10,9,5,9,3,16,0.00,0,,228
2013-2-28,59,52,44,52,36,30,94,55,34,30.10,30.05,29.99,10,8,5,14,7,21,0.00,0,,321